sensor_id;sensor_type;location;lat;lon;timestamp;temperature;humidity
68109;SHT30;54893;49.864;19.084;2023-04-09T00:02:08;3.50;95.65
68109;SHT30;54893;49.864;19.084;2023-04-09T00:07:08;3.49;95.44
68109;SHT30;54893;49.864;19.084;2023-04-09T00:12:09;3.46;95.67
68109;SHT30;54893;49.864;19.084;2023-04-09T00:17:10;3.48;95.89
68109;SHT30;54893;49.864;19.084;2023-04-09T00:22:10;3.44;95.95
68109;SHT30;54893;49.864;19.084;2023-04-09T00:27:11;3.44;95.26
68109;SHT30;54893;49.864;19.084;2023-04-09T00:32:11;3.48;93.49
68109;SHT30;54893;49.864;19.084;2023-04-09T00:37:12;3.53;95.62
68109;SHT30;54893;49.864;19.084;2023-04-09T00:42:12;3.46;95.95
68109;SHT30;54893;49.864;19.084;2023-04-09T00:47:13;3.38;96.13
68109;SHT30;54893;49.864;19.084;2023-04-09T00:52:13;3.26;96.41
68109;SHT30;54893;49.864;19.084;2023-04-09T00:57:14;3.20;96.63
68109;SHT30;54893;49.864;19.084;2023-04-09T01:02:15;3.20;96.68
68109;SHT30;54893;49.864;19.084;2023-04-09T01:13:03;3.26;96.83
68109;SHT30;54893;49.864;19.084;2023-04-09T01:18:51;3.29;96.71
68109;SHT30;54893;49.864;19.084;2023-04-09T01:23:36;3.32;96.54
68109;SHT30;54893;49.864;19.084;2023-04-09T01:28:44;3.30;96.73
68109;SHT30;54893;49.864;19.084;2023-04-09T01:33:45;3.33;96.82
68109;SHT30;54893;49.864;19.084;2023-04-09T01:38:47;3.42;96.56
68109;SHT30;54893;49.864;19.084;2023-04-09T01:43:51;3.48;96.37
68109;SHT30;54893;49.864;19.084;2023-04-09T01:48:52;3.53;96.27
68109;SHT30;54893;49.864;19.084;2023-04-09T01:53:53;3.55;96.11
68109;SHT30;54893;49.864;19.084;2023-04-09T01:58:54;3.58;96.06
68109;SHT30;54893;49.864;19.084;2023-04-09T02:03:58;3.56;95.62
68109;SHT30;54893;49.864;19.084;2023-04-09T02:09:00;3.52;96.03
68109;SHT30;54893;49.864;19.084;2023-04-09T02:14:02;3.52;96.34
68109;SHT30;54893;49.864;19.084;2023-04-09T02:19:03;3.49;96.29
68109;SHT30;54893;49.864;19.084;2023-04-09T02:24:03;3.52;94.64
68109;SHT30;54893;49.864;19.084;2023-04-09T02:29:04;3.56;94.23
68109;SHT30;54893;49.864;19.084;2023-04-09T02:34:04;3.56;93.63
68109;SHT30;54893;49.864;19.084;2023-04-09T02:39:04;3.66;92.74
68109;SHT30;54893;49.864;19.084;2023-04-09T02:44:05;3.66;91.56
68109;SHT30;54893;49.864;19.084;2023-04-09T02:49:06;3.66;91.06
68109;SHT30;54893;49.864;19.084;2023-04-09T02:54:06;3.73;91.32
68109;SHT30;54893;49.864;19.084;2023-04-09T02:59:06;3.77;91.57
68109;SHT30;54893;49.864;19.084;2023-04-09T03:04:07;3.79;91.51
68109;SHT30;54893;49.864;19.084;2023-04-09T03:09:07;3.76;91.96
68109;SHT30;54893;49.864;19.084;2023-04-09T03:14:07;3.84;91.60
68109;SHT30;54893;49.864;19.084;2023-04-09T03:19:08;3.86;91.92
68109;SHT30;54893;49.864;19.084;2023-04-09T03:24:08;3.84;92.59
68109;SHT30;54893;49.864;19.084;2023-04-09T03:29:08;3.82;93.05
68109;SHT30;54893;49.864;19.084;2023-04-09T03:34:09;3.76;93.66
68109;SHT30;54893;49.864;19.084;2023-04-09T03:39:09;3.73;94.80
68109;SHT30;54893;49.864;19.084;2023-04-09T03:44:09;3.69;94.20
68109;SHT30;54893;49.864;19.084;2023-04-09T03:49:10;3.70;93.69
68109;SHT30;54893;49.864;19.084;2023-04-09T03:54:10;3.73;93.62
68109;SHT30;54893;49.864;19.084;2023-04-09T03:59:11;3.72;94.13
68109;SHT30;54893;49.864;19.084;2023-04-09T04:04:11;3.72;94.55
68109;SHT30;54893;49.864;19.084;2023-04-09T04:09:11;3.72;95.04
68109;SHT30;54893;49.864;19.084;2023-04-09T04:14:12;3.69;95.38
68109;SHT30;54893;49.864;19.084;2023-04-09T04:19:12;3.67;95.29
68109;SHT30;54893;49.864;19.084;2023-04-09T04:24:12;3.66;95.60
68109;SHT30;54893;49.864;19.084;2023-04-09T04:29:13;3.66;96.09
68109;SHT30;54893;49.864;19.084;2023-04-09T04:34:13;3.67;96.21
68109;SHT30;54893;49.864;19.084;2023-04-09T04:39:13;3.67;96.32
68109;SHT30;54893;49.864;19.084;2023-04-09T04:44:14;3.72;96.37
68109;SHT30;54893;49.864;19.084;2023-04-09T04:49:15;3.76;95.54
68109;SHT30;54893;49.864;19.084;2023-04-09T04:54:15;3.86;95.80
68109;SHT30;54893;49.864;19.084;2023-04-09T04:59:16;4.00;95.89
68109;SHT30;54893;49.864;19.084;2023-04-09T05:04:16;4.11;95.48
68109;SHT30;54893;49.864;19.084;2023-04-09T05:09:17;4.25;93.61
68109;SHT30;54893;49.864;19.084;2023-04-09T05:14:17;4.42;92.75
68109;SHT30;54893;49.864;19.084;2023-04-09T05:19:20;4.61;92.25
68109;SHT30;54893;49.864;19.084;2023-04-09T05:24:20;4.73;91.81
68109;SHT30;54893;49.864;19.084;2023-04-09T05:29:20;4.85;90.86
68109;SHT30;54893;49.864;19.084;2023-04-09T05:34:21;4.91;91.28
68109;SHT30;54893;49.864;19.084;2023-04-09T05:39:21;5.05;90.70
68109;SHT30;54893;49.864;19.084;2023-04-09T05:44:21;5.26;90.12
68109;SHT30;54893;49.864;19.084;2023-04-09T05:49:22;5.40;89.97
68109;SHT30;54893;49.864;19.084;2023-04-09T05:54:22;5.49;89.82
68109;SHT30;54893;49.864;19.084;2023-04-09T05:59:22;5.46;90.19
68109;SHT30;54893;49.864;19.084;2023-04-09T06:04:23;5.56;90.74
68109;SHT30;54893;49.864;19.084;2023-04-09T06:09:23;6.08;89.25
68109;SHT30;54893;49.864;19.084;2023-04-09T06:14:23;6.59;88.18
68109;SHT30;54893;49.864;19.084;2023-04-09T06:19:24;6.69;87.66
68109;SHT30;54893;49.864;19.084;2023-04-09T06:24:24;6.59;88.02
68109;SHT30;54893;49.864;19.084;2023-04-09T06:29:25;6.97;88.00
68109;SHT30;54893;49.864;19.084;2023-04-09T06:34:26;6.73;88.15
68109;SHT30;54893;49.864;19.084;2023-04-09T06:39:26;6.88;88.60
68109;SHT30;54893;49.864;19.084;2023-04-09T06:44:27;6.92;87.13
68109;SHT30;54893;49.864;19.084;2023-04-09T06:49:27;7.16;88.27
68109;SHT30;54893;49.864;19.084;2023-04-09T06:54:27;7.47;86.70
68109;SHT30;54893;49.864;19.084;2023-04-09T06:59:28;7.36;86.17
68109;SHT30;54893;49.864;19.084;2023-04-09T07:04:28;7.53;85.88
68109;SHT30;54893;49.864;19.084;2023-04-09T07:09:28;7.66;85.78
68109;SHT30;54893;49.864;19.084;2023-04-09T07:14:30;7.77;85.46
68109;SHT30;54893;49.864;19.084;2023-04-09T07:19:30;8.27;85.67
68109;SHT30;54893;49.864;19.084;2023-04-09T07:24:31;8.63;85.04
68109;SHT30;54893;49.864;19.084;2023-04-09T07:29:31;8.31;83.88
68109;SHT30;54893;49.864;19.084;2023-04-09T07:34:32;8.24;83.91
68109;SHT30;54893;49.864;19.084;2023-04-09T07:39:32;8.34;83.12
68109;SHT30;54893;49.864;19.084;2023-04-09T07:44:33;8.05;84.08
68109;SHT30;54893;49.864;19.084;2023-04-09T07:49:35;8.89;84.13
68109;SHT30;54893;49.864;19.084;2023-04-09T07:54:37;9.23;82.09
68109;SHT30;54893;49.864;19.084;2023-04-09T07:59:37;9.28;81.40
68109;SHT30;54893;49.864;19.084;2023-04-09T08:04:37;9.20;80.67
68109;SHT30;54893;49.864;19.084;2023-04-09T08:09:38;9.34;79.85
68109;SHT30;54893;49.864;19.084;2023-04-09T08:14:38;9.43;80.79
68109;SHT30;54893;49.864;19.084;2023-04-09T08:19:38;9.36;78.93
68109;SHT30;54893;49.864;19.084;2023-04-09T08:24:41;10.04;77.82
68109;SHT30;54893;49.864;19.084;2023-04-09T08:29:42;9.90;77.50
68109;SHT30;54893;49.864;19.084;2023-04-09T08:34:43;9.73;77.91
68109;SHT30;54893;49.864;19.084;2023-04-09T08:39:43;10.62;77.79
68109;SHT30;54893;49.864;19.084;2023-04-09T08:44:49;11.91;73.23
68109;SHT30;54893;49.864;19.084;2023-04-09T08:49:49;12.58;72.94
68109;SHT30;54893;49.864;19.084;2023-04-09T08:54:50;11.40;75.17
68109;SHT30;54893;49.864;19.084;2023-04-09T08:59:50;11.14;73.48
68109;SHT30;54893;49.864;19.084;2023-04-09T09:04:51;11.04;71.87
68109;SHT30;54893;49.864;19.084;2023-04-09T09:09:54;11.30;74.38
68109;SHT30;54893;49.864;19.084;2023-04-09T09:14:55;11.78;73.59
68109;SHT30;54893;49.864;19.084;2023-04-09T09:19:56;10.97;75.99
68109;SHT30;54893;49.864;19.084;2023-04-09T09:24:56;11.27;73.93
68109;SHT30;54893;49.864;19.084;2023-04-09T09:29:57;11.30;72.63
68109;SHT30;54893;49.864;19.084;2023-04-09T09:35:05;11.97;70.80
68109;SHT30;54893;49.864;19.084;2023-04-09T09:40:06;12.72;72.92
68109;SHT30;54893;49.864;19.084;2023-04-09T09:45:16;12.29;72.18
68109;SHT30;54893;49.864;19.084;2023-04-09T09:50:17;13.14;71.77
68109;SHT30;54893;49.864;19.084;2023-04-09T09:55:18;13.40;70.41
68109;SHT30;54893;49.864;19.084;2023-04-09T10:00:20;11.40;73.35
68109;SHT30;54893;49.864;19.084;2023-04-09T10:05:24;11.50;73.01
68109;SHT30;54893;49.864;19.084;2023-04-09T10:10:26;11.40;71.97
68109;SHT30;54893;49.864;19.084;2023-04-09T10:15:28;12.53;71.02
68109;SHT30;54893;49.864;19.084;2023-04-09T10:20:38;11.75;69.46
68109;SHT30;54893;49.864;19.084;2023-04-09T10:25:40;12.39;68.35
68109;SHT30;54893;49.864;19.084;2023-04-09T10:30:41;11.91;67.60
68109;SHT30;54893;49.864;19.084;2023-04-09T10:35:45;12.56;68.16
68109;SHT30;54893;49.864;19.084;2023-04-09T10:40:46;13.44;65.96
68109;SHT30;54893;49.864;19.084;2023-04-09T10:45:48;13.77;68.17
68109;SHT30;54893;49.864;19.084;2023-04-09T10:50:54;13.98;66.72
68109;SHT30;54893;49.864;19.084;2023-04-09T10:55:54;12.90;68.19
68109;SHT30;54893;49.864;19.084;2023-04-09T11:01:00;12.69;68.02
68109;SHT30;54893;49.864;19.084;2023-04-09T11:06:02;13.94;65.66
68109;SHT30;54893;49.864;19.084;2023-04-09T11:11:05;13.37;65.94
68109;SHT30;54893;49.864;19.084;2023-04-09T11:16:05;12.78;68.49
68109;SHT30;54893;49.864;19.084;2023-04-09T11:21:06;13.68;65.42
68109;SHT30;54893;49.864;19.084;2023-04-09T11:26:08;13.75;63.76
68109;SHT30;54893;49.864;19.084;2023-04-09T11:31:08;13.87;64.20
68109;SHT30;54893;49.864;19.084;2023-04-09T11:36:09;13.06;66.15
68109;SHT30;54893;49.864;19.084;2023-04-09T11:41:09;12.68;67.06
68109;SHT30;54893;49.864;19.084;2023-04-09T11:46:12;12.29;68.33
68109;SHT30;54893;49.864;19.084;2023-04-09T11:51:13;12.24;68.56
68109;SHT30;54893;49.864;19.084;2023-04-09T11:56:14;11.73;67.46
68109;SHT30;54893;49.864;19.084;2023-04-09T12:01:15;11.50;69.62
68109;SHT30;54893;49.864;19.084;2023-04-09T12:06:19;11.43;70.50
68109;SHT30;54893;49.864;19.084;2023-04-09T12:11:29;11.47;71.07
68109;SHT30;54893;49.864;19.084;2023-04-09T12:16:34;11.14;71.62
68109;SHT30;54893;49.864;19.084;2023-04-09T12:21:54;11.10;72.43
68109;SHT30;54893;49.864;19.084;2023-04-09T12:26:57;11.63;69.64
68109;SHT30;54893;49.864;19.084;2023-04-09T12:31:58;11.85;71.60
68109;SHT30;54893;49.864;19.084;2023-04-09T12:36:58;11.85;70.99
68109;SHT30;54893;49.864;19.084;2023-04-09T12:41:58;11.44;69.96
68109;SHT30;54893;49.864;19.084;2023-04-09T12:47:00;11.67;71.40
68109;SHT30;54893;49.864;19.084;2023-04-09T12:52:02;11.74;69.70
68109;SHT30;54893;49.864;19.084;2023-04-09T12:57:03;11.70;69.33
68109;SHT30;54893;49.864;19.084;2023-04-09T13:02:03;11.75;70.55
68109;SHT30;54893;49.864;19.084;2023-04-09T13:07:04;11.64;67.81
68109;SHT30;54893;49.864;19.084;2023-04-09T13:12:04;12.20;69.19
68109;SHT30;54893;49.864;19.084;2023-04-09T13:17:05;12.06;67.95
68109;SHT30;54893;49.864;19.084;2023-04-09T13:22:05;12.02;68.92
68109;SHT30;54893;49.864;19.084;2023-04-09T13:27:07;12.66;68.97
68109;SHT30;54893;49.864;19.084;2023-04-09T13:32:10;12.10;68.89
68109;SHT30;54893;49.864;19.084;2023-04-09T13:37:10;11.73;68.02
68109;SHT30;54893;49.864;19.084;2023-04-09T13:42:11;11.91;67.59
68109;SHT30;54893;49.864;19.084;2023-04-09T13:47:12;11.99;68.57
68109;SHT30;54893;49.864;19.084;2023-04-09T13:52:13;11.74;71.27
68109;SHT30;54893;49.864;19.084;2023-04-09T13:57:13;11.28;72.16
68109;SHT30;54893;49.864;19.084;2023-04-09T14:02:13;10.75;73.48
68109;SHT30;54893;49.864;19.084;2023-04-09T14:07:14;10.72;72.31
68109;SHT30;54893;49.864;19.084;2023-04-09T14:12:14;10.35;74.93
68109;SHT30;54893;49.864;19.084;2023-04-09T14:17:15;10.32;76.23
68109;SHT30;54893;49.864;19.084;2023-04-09T14:22:15;10.32;74.96
68109;SHT30;54893;49.864;19.084;2023-04-09T14:27:15;10.24;74.87
68109;SHT30;54893;49.864;19.084;2023-04-09T14:32:16;10.24;74.31
68109;SHT30;54893;49.864;19.084;2023-04-09T14:37:16;10.22;74.56
68109;SHT30;54893;49.864;19.084;2023-04-09T14:42:17;10.31;74.53
68109;SHT30;54893;49.864;19.084;2023-04-09T14:47:18;10.42;74.87
68109;SHT30;54893;49.864;19.084;2023-04-09T14:52:18;10.52;75.03
68109;SHT30;54893;49.864;19.084;2023-04-09T14:57:18;10.65;74.76
68109;SHT30;54893;49.864;19.084;2023-04-09T15:02:19;10.80;73.99
68109;SHT30;54893;49.864;19.084;2023-04-09T15:07:19;10.90;73.73
68109;SHT30;54893;49.864;19.084;2023-04-09T15:12:20;10.84;72.58
68109;SHT30;54893;49.864;19.084;2023-04-09T15:17:20;11.23;72.97
68109;SHT30;54893;49.864;19.084;2023-04-09T15:22:20;11.09;73.27
68109;SHT30;54893;49.864;19.084;2023-04-09T15:27:21;11.68;72.44
68109;SHT30;54893;49.864;19.084;2023-04-09T15:32:21;12.48;68.74
68109;SHT30;54893;49.864;19.084;2023-04-09T15:37:21;12.66;67.93
68109;SHT30;54893;49.864;19.084;2023-04-09T15:42:23;12.10;70.08
68109;SHT30;54893;49.864;19.084;2023-04-09T15:47:24;15.33;63.48
68109;SHT30;54893;49.864;19.084;2023-04-09T15:52:24;16.68;58.76
68109;SHT30;54893;49.864;19.084;2023-04-09T15:57:25;15.58;60.89
68109;SHT30;54893;49.864;19.084;2023-04-09T16:02:26;13.27;65.39
68109;SHT30;54893;49.864;19.084;2023-04-09T16:07:26;12.76;73.09
68109;SHT30;54893;49.864;19.084;2023-04-09T16:12:26;12.24;69.22
68109;SHT30;54893;49.864;19.084;2023-04-09T16:17:27;12.04;68.51
68109;SHT30;54893;49.864;19.084;2023-04-09T16:22:28;11.48;67.42
68109;SHT30;54893;49.864;19.084;2023-04-09T16:27:28;11.47;68.37
68109;SHT30;54893;49.864;19.084;2023-04-09T16:32:29;11.48;67.36
68109;SHT30;54893;49.864;19.084;2023-04-09T16:37:29;11.46;67.01
68109;SHT30;54893;49.864;19.084;2023-04-09T16:42:30;11.30;68.03
68109;SHT30;54893;49.864;19.084;2023-04-09T16:47:32;10.79;69.29
68109;SHT30;54893;49.864;19.084;2023-04-09T16:52:32;10.50;70.19
68109;SHT30;54893;49.864;19.084;2023-04-09T16:57:34;10.36;69.83
68109;SHT30;54893;49.864;19.084;2023-04-09T17:02:35;10.14;69.64
68109;SHT30;54893;49.864;19.084;2023-04-09T17:07:36;10.01;68.94
68109;SHT30;54893;49.864;19.084;2023-04-09T17:12:36;9.65;70.75
68109;SHT30;54893;49.864;19.084;2023-04-09T17:17:37;9.41;71.44
68109;SHT30;54893;49.864;19.084;2023-04-09T17:22:37;9.23;71.41
68109;SHT30;54893;49.864;19.084;2023-04-09T17:27:38;9.00;71.71
68109;SHT30;54893;49.864;19.084;2023-04-09T17:32:39;8.66;72.30
68109;SHT30;54893;49.864;19.084;2023-04-09T17:37:39;8.83;72.62
68109;SHT30;54893;49.864;19.084;2023-04-09T17:42:39;8.63;75.99
68109;SHT30;54893;49.864;19.084;2023-04-09T17:47:40;8.37;79.80
68109;SHT30;54893;49.864;19.084;2023-04-09T17:52:41;8.49;83.81
68109;SHT30;54893;49.864;19.084;2023-04-09T17:57:41;8.06;85.20
68109;SHT30;54893;49.864;19.084;2023-04-09T18:02:41;7.87;86.44
68109;SHT30;54893;49.864;19.084;2023-04-09T18:07:42;7.69;87.31
68109;SHT30;54893;49.864;19.084;2023-04-09T18:12:43;7.57;87.97
68109;SHT30;54893;49.864;19.084;2023-04-09T18:17:43;7.31;88.28
68109;SHT30;54893;49.864;19.084;2023-04-09T18:22:44;7.39;88.38
68109;SHT30;54893;49.864;19.084;2023-04-09T18:27:45;7.36;88.96
68109;SHT30;54893;49.864;19.084;2023-04-09T18:32:45;7.34;89.05
68109;SHT30;54893;49.864;19.084;2023-04-09T18:37:47;7.24;89.74
68109;SHT30;54893;49.864;19.084;2023-04-09T18:42:50;7.07;90.03
68109;SHT30;54893;49.864;19.084;2023-04-09T18:47:51;6.89;92.65
68109;SHT30;54893;49.864;19.084;2023-04-09T18:52:52;6.82;90.60
68109;SHT30;54893;49.864;19.084;2023-04-09T18:57:52;6.82;90.86
68109;SHT30;54893;49.864;19.084;2023-04-09T19:02:53;6.78;90.98
68109;SHT30;54893;49.864;19.084;2023-04-09T19:08:00;6.88;90.52
68109;SHT30;54893;49.864;19.084;2023-04-09T19:13:01;6.88;90.38
68109;SHT30;54893;49.864;19.084;2023-04-09T19:18:02;6.82;91.33
68109;SHT30;54893;49.864;19.084;2023-04-09T19:23:02;6.85;89.98
68109;SHT30;54893;49.864;19.084;2023-04-09T19:28:03;6.76;90.49
68109;SHT30;54893;49.864;19.084;2023-04-09T19:33:03;6.65;91.74
68109;SHT30;54893;49.864;19.084;2023-04-09T19:38:04;6.45;91.38
68109;SHT30;54893;49.864;19.084;2023-04-09T19:43:04;6.35;91.24
68109;SHT30;54893;49.864;19.084;2023-04-09T19:48:05;6.18;91.19
68109;SHT30;54893;49.864;19.084;2023-04-09T19:53:05;6.05;91.29
68109;SHT30;54893;49.864;19.084;2023-04-09T19:58:06;5.93;91.54
68109;SHT30;54893;49.864;19.084;2023-04-09T20:03:06;5.94;91.38
68109;SHT30;54893;49.864;19.084;2023-04-09T20:08:07;6.04;91.61
68109;SHT30;54893;49.864;19.084;2023-04-09T20:13:07;6.03;92.54
68109;SHT30;54893;49.864;19.084;2023-04-09T20:18:08;6.10;90.68
68109;SHT30;54893;49.864;19.084;2023-04-09T20:23:08;6.00;91.71
68109;SHT30;54893;49.864;19.084;2023-04-09T20:28:08;5.93;91.94
68109;SHT30;54893;49.864;19.084;2023-04-09T20:33:09;5.77;92.34
68109;SHT30;54893;49.864;19.084;2023-04-09T20:38:09;5.64;94.65
68109;SHT30;54893;49.864;19.084;2023-04-09T20:43:10;5.61;93.47
68109;SHT30;54893;49.864;19.084;2023-04-09T20:48:10;5.73;91.63
68109;SHT30;54893;49.864;19.084;2023-04-09T20:53:11;5.81;91.64
68109;SHT30;54893;49.864;19.084;2023-04-09T20:58:12;5.90;91.74
68109;SHT30;54893;49.864;19.084;2023-04-09T21:03:12;6.00;91.89
68109;SHT30;54893;49.864;19.084;2023-04-09T21:08:13;6.01;92.18
68109;SHT30;54893;49.864;19.084;2023-04-09T21:13:14;6.08;92.64
68109;SHT30;54893;49.864;19.084;2023-04-09T21:18:15;6.15;92.41
68109;SHT30;54893;49.864;19.084;2023-04-09T21:23:16;6.13;92.55
68109;SHT30;54893;49.864;19.084;2023-04-09T21:28:16;6.13;92.97
68109;SHT30;54893;49.864;19.084;2023-04-09T21:33:17;6.13;93.16
68109;SHT30;54893;49.864;19.084;2023-04-09T21:38:17;6.11;93.13
68109;SHT30;54893;49.864;19.084;2023-04-09T21:43:18;6.08;93.28
68109;SHT30;54893;49.864;19.084;2023-04-09T21:48:18;6.08;93.69
68109;SHT30;54893;49.864;19.084;2023-04-09T21:53:18;6.03;93.98
68109;SHT30;54893;49.864;19.084;2023-04-09T21:58:19;6.03;94.03
68109;SHT30;54893;49.864;19.084;2023-04-09T22:03:19;5.97;94.27
68109;SHT30;54893;49.864;19.084;2023-04-09T22:08:20;5.94;94.10
68109;SHT30;54893;49.864;19.084;2023-04-09T22:13:20;5.97;94.34
68109;SHT30;54893;49.864;19.084;2023-04-09T22:18:20;6.08;94.28
68109;SHT30;54893;49.864;19.084;2023-04-09T22:23:21;6.13;94.40
68109;SHT30;54893;49.864;19.084;2023-04-09T22:28:21;6.15;94.48
68109;SHT30;54893;49.864;19.084;2023-04-09T22:33:21;6.13;94.68
68109;SHT30;54893;49.864;19.084;2023-04-09T22:38:22;6.14;94.76
68109;SHT30;54893;49.864;19.084;2023-04-09T22:43:22;6.11;94.86
68109;SHT30;54893;49.864;19.084;2023-04-09T22:48:22;6.14;94.83
68109;SHT30;54893;49.864;19.084;2023-04-09T22:53:23;6.07;94.87
68109;SHT30;54893;49.864;19.084;2023-04-09T22:58:23;6.11;94.99
68109;SHT30;54893;49.864;19.084;2023-04-09T23:03:23;6.08;94.98
68109;SHT30;54893;49.864;19.084;2023-04-09T23:08:24;6.10;95.01
68109;SHT30;54893;49.864;19.084;2023-04-09T23:13:25;6.11;95.10
68109;SHT30;54893;49.864;19.084;2023-04-09T23:18:25;6.20;95.02
68109;SHT30;54893;49.864;19.084;2023-04-09T23:23:26;6.17;95.18
68109;SHT30;54893;49.864;19.084;2023-04-09T23:28:26;6.31;95.09
68109;SHT30;54893;49.864;19.084;2023-04-09T23:33:27;6.15;95.37
68109;SHT30;54893;49.864;19.084;2023-04-09T23:38:27;6.14;95.42
68109;SHT30;54893;49.864;19.084;2023-04-09T23:43:27;6.10;95.65
68109;SHT30;54893;49.864;19.084;2023-04-09T23:48:28;6.07;95.78
68109;SHT30;54893;49.864;19.084;2023-04-09T23:53:28;6.08;95.60
68109;SHT30;54893;49.864;19.084;2023-04-09T23:58:28;6.10;95.58
